createdAt,value
2023-04-14T00:00:14.234Z,2.57
2023-04-14T00:01:18.799Z,2.13
2023-04-14T00:02:23.114Z,2.11
2023-04-14T00:03:27.654Z,2.02
2023-04-14T00:04:32.151Z,2.26
2023-04-14T00:05:36.699Z,2.10
2023-04-14T00:06:48.744Z,2.26
2023-04-14T00:07:53.216Z,2.37
2023-04-14T00:09:00.624Z,2.12
2023-04-14T00:10:04.859Z,2.26
2023-04-14T00:12:32.323Z,2.54
2023-04-14T00:13:36.353Z,2.35
2023-04-14T00:14:45.960Z,2.32
2023-04-14T00:15:50.446Z,2.62
2023-04-14T00:16:54.706Z,2.73
2023-04-14T00:18:13.311Z,2.53
2023-04-14T00:19:18.031Z,3.70
2023-04-14T00:20:22.717Z,3.75
2023-04-14T00:21:27.235Z,3.60
2023-04-14T00:22:31.270Z,3.31
2023-04-14T00:23:35.480Z,2.64
2023-04-14T00:24:52.582Z,2.36
2023-04-14T00:25:57.318Z,2.56
2023-04-14T00:27:01.311Z,3.05
2023-04-14T00:28:05.713Z,2.64
2023-04-14T00:29:10.065Z,2.41
2023-04-14T00:30:14.630Z,3.02
2023-04-14T00:31:18.870Z,2.75
2023-04-14T00:32:23.058Z,2.28
2023-04-14T00:33:26.748Z,2.36
2023-04-14T00:34:31.152Z,2.50
2023-04-14T00:35:35.695Z,2.46
2023-04-14T00:36:39.704Z,2.59
2023-04-14T00:37:45.516Z,2.68
2023-04-14T00:38:49.430Z,2.29
2023-04-14T00:39:53.409Z,2.24
2023-04-14T00:40:57.873Z,1.92
2023-04-14T00:42:05.235Z,2.06
2023-04-14T00:43:09.619Z,2.27
2023-04-14T00:44:13.305Z,2.47
2023-04-14T00:45:17.537Z,2.23
2023-04-14T00:46:21.607Z,2.13
2023-04-14T00:47:26.035Z,2.38
2023-04-14T00:48:29.852Z,2.13
2023-04-14T00:49:33.827Z,1.88
2023-04-14T00:50:37.848Z,2.19
2023-04-14T00:51:42.231Z,2.12
2023-04-14T00:52:46.197Z,2.16
2023-04-14T00:53:49.935Z,2.34
2023-04-14T00:54:54.547Z,2.36
2023-04-14T00:55:58.438Z,2.11
2023-04-14T00:57:02.267Z,2.16
2023-04-14T00:58:06.299Z,1.97
2023-04-14T00:59:10.260Z,2.19
2023-04-14T01:00:14.362Z,2.03
2023-04-14T01:01:18.198Z,2.06
2023-04-14T01:02:22.680Z,2.32
2023-04-14T01:03:31.512Z,2.45
2023-04-14T01:04:51.982Z,2.30
2023-04-14T01:05:40.405Z,2.30
2023-04-14T01:06:44.198Z,1.99
2023-04-14T01:07:48.201Z,2.29
2023-04-14T01:08:51.578Z,2.38
2023-04-14T01:09:55.179Z,2.98
2023-04-14T01:10:58.577Z,3.16
2023-04-14T01:12:03.682Z,2.52
2023-04-14T01:13:07.178Z,2.06
2023-04-14T01:14:10.464Z,1.94
2023-04-14T01:15:13.528Z,2.11
2023-04-14T01:16:16.746Z,1.94
2023-04-14T01:17:19.934Z,2.23
2023-04-14T01:18:23.289Z,2.87
2023-04-14T01:19:26.168Z,2.59
2023-04-14T01:20:29.450Z,2.14
2023-04-14T01:21:32.332Z,1.90
2023-04-14T01:22:35.195Z,2.55
2023-04-14T01:23:38.074Z,2.54
2023-04-14T01:24:40.647Z,2.35
2023-04-14T01:25:43.421Z,2.29
2023-04-14T01:26:46.284Z,2.29
2023-04-14T01:27:49.159Z,2.58
2023-04-14T01:28:52.245Z,2.76
2023-04-14T01:29:55.132Z,2.57
2023-04-14T01:30:57.785Z,2.81
2023-04-14T01:32:00.409Z,2.57
2023-04-14T01:33:03.053Z,2.25
2023-04-14T01:34:05.990Z,1.92
2023-04-14T01:35:08.660Z,2.22
2023-04-14T01:36:11.453Z,2.06
2023-04-14T01:37:14.317Z,1.90
2023-04-14T01:38:17.193Z,1.85
2023-04-14T01:39:20.170Z,1.95
2023-04-14T01:40:23.044Z,2.03
2023-04-14T01:41:25.708Z,2.26
2023-04-14T01:42:28.384Z,2.29
2023-04-14T01:43:30.943Z,2.36
2023-04-14T01:44:33.612Z,2.47
2023-04-14T01:45:36.314Z,2.48
2023-04-14T01:46:39.164Z,2.29
2023-04-14T01:47:44.211Z,2.07
2023-04-14T01:48:46.975Z,2.01
2023-04-14T01:49:49.990Z,2.44
2023-04-14T01:50:52.815Z,3.27
2023-04-14T01:51:55.703Z,3.49
2023-04-14T01:52:58.357Z,3.54
2023-04-14T01:54:01.337Z,2.59
2023-04-14T01:55:04.727Z,3.25
2023-04-14T01:56:07.280Z,2.93
2023-04-14T01:57:10.980Z,2.26
2023-04-14T01:58:13.544Z,2.31
2023-04-14T01:59:16.323Z,2.53
2023-04-14T02:00:19.201Z,2.54
2023-04-14T02:01:21.870Z,3.22
2023-04-14T02:02:24.662Z,2.92
2023-04-14T02:03:27.703Z,2.95
2023-04-14T02:04:30.380Z,2.64
2023-04-14T02:05:33.048Z,2.65
2023-04-14T02:06:36.128Z,2.50
2023-04-14T02:07:39.213Z,2.79
2023-04-14T02:08:41.887Z,2.71
2023-04-14T02:09:45.156Z,2.62
2023-04-14T02:10:48.047Z,2.53
2023-04-14T02:11:51.110Z,1.88
2023-04-14T02:12:57.665Z,1.91
2023-04-14T02:14:01.053Z,2.42
2023-04-14T02:15:04.248Z,3.51
2023-04-14T02:16:07.356Z,2.53
2023-04-14T02:17:10.001Z,2.24
2023-04-14T02:18:12.579Z,2.02
2023-04-14T02:19:15.235Z,2.07
2023-04-14T02:20:17.921Z,2.71
2023-04-14T02:21:20.690Z,2.08
2023-04-14T02:22:23.560Z,2.05
2023-04-14T02:23:26.430Z,1.96
2023-04-14T02:24:29.091Z,2.02
2023-04-14T02:25:31.768Z,1.92
2023-04-14T02:26:34.853Z,2.32
2023-04-14T02:27:37.455Z,2.82
2023-04-14T02:28:40.089Z,2.42
2023-04-14T02:29:42.754Z,2.38
2023-04-14T02:30:45.657Z,2.51
2023-04-14T02:31:48.299Z,2.48
2023-04-14T02:32:51.006Z,2.36
2023-04-14T02:33:53.638Z,2.21
2023-04-14T02:34:56.205Z,2.39
2023-04-14T02:35:58.870Z,2.20
2023-04-14T02:37:02.057Z,2.45
2023-04-14T02:38:04.725Z,2.62
2023-04-14T02:39:07.407Z,2.59
2023-04-14T02:40:10.066Z,2.54
2023-04-14T02:41:12.748Z,2.69
2023-04-14T02:42:16.432Z,2.76
2023-04-14T02:43:19.110Z,3.03
2023-04-14T02:44:21.763Z,2.65
2023-04-14T02:45:24.435Z,2.54
2023-04-14T02:46:27.136Z,3.51
2023-04-14T02:47:30.769Z,3.53
2023-04-14T02:48:33.365Z,3.69
2023-04-14T02:49:36.037Z,3.26
2023-04-14T02:50:38.926Z,2.48
2023-04-14T02:51:43.015Z,2.72
2023-04-14T02:52:46.821Z,2.38
2023-04-14T02:53:49.690Z,2.66
2023-04-14T02:54:52.474Z,2.75
2023-04-14T02:55:55.238Z,2.49
2023-04-14T02:56:58.110Z,2.52
2023-04-14T02:58:00.999Z,2.53
2023-04-14T02:59:03.776Z,2.60
2023-04-14T03:00:06.346Z,2.90
2023-04-14T03:01:09.211Z,3.00
2023-04-14T03:02:12.134Z,2.82
2023-04-14T03:03:15.180Z,2.63
2023-04-14T03:04:18.215Z,3.00
2023-04-14T03:05:21.012Z,2.46
2023-04-14T03:06:23.683Z,2.73
2023-04-14T03:07:26.242Z,2.98
2023-04-14T03:08:28.909Z,3.28
2023-04-14T03:09:31.692Z,3.00
2023-04-14T03:10:34.364Z,3.38
2023-04-14T03:11:37.030Z,3.99
2023-04-14T03:12:39.714Z,3.15
2023-04-14T03:13:42.377Z,3.63
2023-04-14T03:14:45.042Z,3.26
2023-04-14T03:15:47.981Z,3.89
2023-04-14T03:16:53.041Z,3.85
2023-04-14T03:17:55.265Z,3.71
2023-04-14T03:19:03.397Z,3.43
2023-04-14T03:20:05.962Z,3.09
2023-04-14T03:21:08.644Z,3.22
2023-04-14T03:22:11.305Z,3.10
2023-04-14T03:23:13.901Z,2.82
2023-04-14T03:24:16.536Z,3.00
2023-04-14T03:25:19.213Z,2.78
2023-04-14T03:26:23.815Z,2.91
2023-04-14T03:27:27.003Z,2.81
2023-04-14T03:28:29.968Z,2.84
2023-04-14T03:29:32.859Z,2.78
2023-04-14T03:30:35.629Z,2.76
2023-04-14T03:31:38.418Z,2.65
2023-04-14T03:32:41.458Z,2.85
2023-04-14T03:33:44.442Z,2.88
2023-04-14T03:34:47.318Z,2.65
2023-04-14T03:35:50.612Z,2.73
2023-04-14T03:36:53.604Z,3.09
2023-04-14T03:37:56.166Z,3.12
2023-04-14T03:38:59.079Z,3.04
2023-04-14T03:40:01.917Z,2.95
2023-04-14T03:41:04.479Z,2.37
2023-04-14T03:42:07.443Z,2.80
2023-04-14T03:43:10.625Z,2.26
2023-04-14T03:44:13.707Z,2.28
2023-04-14T03:45:16.784Z,1.98
2023-04-14T03:46:19.793Z,2.38
2023-04-14T03:47:23.102Z,2.22
2023-04-14T03:48:26.224Z,1.95
2023-04-14T03:49:29.303Z,1.93
2023-04-14T03:50:32.485Z,2.08
2023-04-14T03:51:35.456Z,2.59
2023-04-14T03:52:38.338Z,2.19
2023-04-14T03:53:41.014Z,2.44
2023-04-14T03:54:46.953Z,2.22
2023-04-14T03:55:50.030Z,2.23
2023-04-14T03:56:52.916Z,2.50
2023-04-14T03:57:55.779Z,2.78
2023-04-14T03:58:59.085Z,2.22
2023-04-14T04:00:02.041Z,2.25
2023-04-14T04:01:05.128Z,2.03
2023-04-14T04:02:08.383Z,2.12
2023-04-14T04:03:11.750Z,2.04
2023-04-14T04:04:15.052Z,2.19
2023-04-14T04:05:18.255Z,1.98
2023-04-14T04:06:21.549Z,2.13
2023-04-14T04:07:24.824Z,2.37
2023-04-14T04:08:27.698Z,2.05
2023-04-14T04:09:30.987Z,1.93
2023-04-14T04:10:33.854Z,2.02
2023-04-14T04:11:36.938Z,1.87
2023-04-14T04:12:39.711Z,1.79
2023-04-14T04:13:42.732Z,2.11
2023-04-14T04:14:45.867Z,2.37
2023-04-14T04:15:48.851Z,2.30
2023-04-14T04:16:51.767Z,2.08
2023-04-14T04:17:54.737Z,2.52
2023-04-14T04:18:58.129Z,2.65
2023-04-14T04:20:00.976Z,2.01
2023-04-14T04:21:03.666Z,1.91
2023-04-14T04:22:06.639Z,1.98
2023-04-14T04:23:09.404Z,2.05
2023-04-14T04:24:12.072Z,2.07
2023-04-14T04:25:14.948Z,2.20
2023-04-14T04:26:17.831Z,2.39
2023-04-14T04:27:27.711Z,2.74
2023-04-14T04:28:25.389Z,2.56
2023-04-14T04:29:28.365Z,2.77
2023-04-14T04:30:31.439Z,3.01
2023-04-14T04:31:34.786Z,2.67
2023-04-14T04:32:37.958Z,2.39
2023-04-14T04:33:40.994Z,2.51
2023-04-14T04:34:43.770Z,2.76
2023-04-14T04:35:46.747Z,2.60
2023-04-14T04:36:49.724Z,2.46
2023-04-14T04:37:52.999Z,2.69
2023-04-14T04:38:56.185Z,3.05
2023-04-14T04:39:58.986Z,3.15
2023-04-14T04:41:02.032Z,2.93
2023-04-14T04:42:05.025Z,2.77
2023-04-14T04:43:08.295Z,2.53
2023-04-14T04:44:11.477Z,2.57
2023-04-14T04:45:14.665Z,2.65
2023-04-14T04:46:17.588Z,2.30
2023-04-14T04:47:20.234Z,2.93
2023-04-14T04:48:23.216Z,2.65
2023-04-14T04:49:26.269Z,2.12
2023-04-14T04:50:29.135Z,2.17
2023-04-14T04:51:32.320Z,1.74
2023-04-14T04:52:35.295Z,1.66
2023-04-14T04:53:38.173Z,2.02
2023-04-14T04:54:41.058Z,2.09
2023-04-14T04:55:43.824Z,1.65
2023-04-14T04:56:46.704Z,1.53
2023-04-14T04:57:49.445Z,1.78
2023-04-14T04:58:52.171Z,1.88
2023-04-14T04:59:55.313Z,1.75
2023-04-14T05:00:57.927Z,2.08
2023-04-14T05:02:00.872Z,2.38
2023-04-14T05:03:03.705Z,2.04
2023-04-14T05:04:06.760Z,2.25
2023-04-14T05:05:09.792Z,2.24
2023-04-14T05:06:12.874Z,1.45
2023-04-14T05:07:16.060Z,1.91
2023-04-14T05:08:19.134Z,1.55
2023-04-14T05:09:22.314Z,1.39
2023-04-14T05:10:25.400Z,1.38
2023-04-14T05:11:28.284Z,1.76
2023-04-14T05:12:31.357Z,1.58
2023-04-14T05:13:34.330Z,1.58
2023-04-14T05:14:37.313Z,1.58
2023-04-14T05:15:40.411Z,1.43
2023-04-14T05:16:43.358Z,1.52
2023-04-14T05:17:55.116Z,1.80
2023-04-14T05:18:57.787Z,1.31
2023-04-14T05:20:00.608Z,1.84
2023-04-14T05:21:03.773Z,1.65
2023-04-14T05:22:06.372Z,1.55
2023-04-14T05:23:09.215Z,1.57
2023-04-14T05:24:11.882Z,1.59
2023-04-14T05:25:14.858Z,1.92
2023-04-14T05:27:22.138Z,1.81
2023-04-14T05:28:25.119Z,2.05
2023-04-14T05:29:27.887Z,2.48
2023-04-14T05:30:30.870Z,2.07
2023-04-14T05:31:33.774Z,1.82
2023-04-14T05:32:36.565Z,2.16
2023-04-14T05:33:39.390Z,2.00
2023-04-14T05:34:42.294Z,2.17
2023-04-14T05:35:45.061Z,2.42
2023-04-14T05:36:47.806Z,2.02
2023-04-14T05:37:50.474Z,2.60
2023-04-14T05:38:53.370Z,2.31
2023-04-14T05:39:56.229Z,2.53
2023-04-14T05:40:59.106Z,3.00
2023-04-14T05:42:02.097Z,2.54
2023-04-14T05:43:05.065Z,2.67
2023-04-14T05:44:07.942Z,2.19
2023-04-14T05:45:10.599Z,2.22
2023-04-14T05:46:13.393Z,2.49
2023-04-14T05:47:16.050Z,2.30
2023-04-14T05:48:18.735Z,2.78
2023-04-14T05:49:21.506Z,2.44
2023-04-14T05:50:24.267Z,2.61
2023-04-14T05:51:27.440Z,2.68
2023-04-14T05:52:30.329Z,2.42
2023-04-14T05:53:33.196Z,2.43
2023-04-14T05:54:36.173Z,2.73
2023-04-14T05:55:39.151Z,2.46
2023-04-14T05:56:42.249Z,2.62
2023-04-14T05:57:45.317Z,2.27
2023-04-14T05:58:48.083Z,2.26
2023-04-14T05:59:50.843Z,2.47
2023-04-14T06:00:53.620Z,2.16
2023-04-14T06:01:56.732Z,2.59
2023-04-14T06:02:59.834Z,2.52
2023-04-14T06:04:03.336Z,2.92
2023-04-14T06:05:07.304Z,2.63
2023-04-14T06:06:10.452Z,2.59
2023-04-14T06:07:13.221Z,2.46
2023-04-14T06:08:18.289Z,2.45
2023-04-14T06:09:24.413Z,2.44
2023-04-14T06:10:33.309Z,2.12
2023-04-14T06:11:36.086Z,2.34
2023-04-14T06:12:38.856Z,2.68
2023-04-14T06:13:41.650Z,2.55
2023-04-14T06:14:44.400Z,2.31
2023-04-14T06:15:48.405Z,2.07
2023-04-14T06:16:52.198Z,2.14
2023-04-14T06:17:54.504Z,2.15
2023-04-14T06:18:57.693Z,2.13
2023-04-14T06:20:00.728Z,2.19
2023-04-14T06:21:03.912Z,2.24
2023-04-14T06:22:07.187Z,2.46
2023-04-14T06:23:10.061Z,2.12
2023-04-14T06:24:13.144Z,2.05
2023-04-14T06:25:16.353Z,2.50
2023-04-14T06:26:19.515Z,2.19
2023-04-14T06:27:22.481Z,2.16
2023-04-14T06:28:25.457Z,2.51
2023-04-14T06:29:28.254Z,2.45
2023-04-14T06:30:31.513Z,2.28
2023-04-14T06:31:34.537Z,2.55
2023-04-14T06:32:37.444Z,2.33
2023-04-14T06:33:40.138Z,2.22
2023-04-14T06:34:42.909Z,2.36
2023-04-14T06:35:45.686Z,2.13
2023-04-14T06:36:48.474Z,2.35
2023-04-14T06:37:51.852Z,2.58
2023-04-14T06:38:54.717Z,2.95
2023-04-14T06:39:57.595Z,2.65
2023-04-14T06:41:00.378Z,2.87
2023-04-14T06:42:03.159Z,3.09
2023-04-14T06:43:06.143Z,2.99
2023-04-14T06:44:11.792Z,3.20
2023-04-14T06:45:14.626Z,3.92
2023-04-14T06:46:17.696Z,4.03
2023-04-14T06:47:20.785Z,3.35
2023-04-14T06:48:23.770Z,2.68
2023-04-14T06:49:26.748Z,2.72
2023-04-14T06:50:29.613Z,2.92
2023-04-14T06:51:32.391Z,2.77
2023-04-14T06:52:35.375Z,3.18
2023-04-14T06:53:38.164Z,2.74
2023-04-14T06:54:41.029Z,2.82
2023-04-14T06:55:43.895Z,2.92
2023-04-14T06:56:46.763Z,3.38
2023-04-14T06:57:49.632Z,2.88
2023-04-14T06:58:52.390Z,2.83
2023-04-14T06:59:55.077Z,3.02
2023-04-14T07:00:57.986Z,2.83
2023-04-14T07:02:00.923Z,2.76
2023-04-14T07:03:04.082Z,2.76
2023-04-14T07:04:08.209Z,2.77
2023-04-14T07:05:11.381Z,3.14
2023-04-14T07:06:14.172Z,2.78
2023-04-14T07:07:16.940Z,2.98
2023-04-14T07:08:19.714Z,2.95
2023-04-14T07:09:22.550Z,3.22
2023-04-14T07:10:25.270Z,3.42
2023-04-14T07:11:28.029Z,3.38
2023-04-14T07:12:30.797Z,2.55
2023-04-14T07:13:33.779Z,2.53
2023-04-14T07:14:36.552Z,2.83
2023-04-14T07:15:39.591Z,2.81
2023-04-14T07:16:42.617Z,2.78
2023-04-14T07:17:45.427Z,2.88
2023-04-14T07:18:48.135Z,2.71
2023-04-14T07:19:52.989Z,2.95
2023-04-14T07:20:55.849Z,3.06
2023-04-14T07:21:58.616Z,3.00
2023-04-14T07:23:01.490Z,3.04
2023-04-14T07:24:06.945Z,2.95
2023-04-14T07:25:09.802Z,3.20
2023-04-14T07:26:12.572Z,2.58
2023-04-14T07:27:15.799Z,2.93
2023-04-14T07:28:18.293Z,2.68
2023-04-14T07:29:21.200Z,2.63
2023-04-14T07:30:24.068Z,2.72
2023-04-14T07:31:26.911Z,3.06
2023-04-14T07:32:29.757Z,3.23
2023-04-14T07:33:32.390Z,3.27
2023-04-14T07:34:35.062Z,3.01
2023-04-14T07:35:40.265Z,2.83
2023-04-14T07:36:42.243Z,2.71
2023-04-14T07:37:45.118Z,2.88
2023-04-14T07:38:47.793Z,2.92
2023-04-14T07:39:50.655Z,2.98
2023-04-14T07:40:53.434Z,3.33
2023-04-14T07:41:56.206Z,3.22
2023-04-14T07:42:59.177Z,3.35
2023-04-14T07:44:02.547Z,3.03
2023-04-14T07:45:06.276Z,3.31
2023-04-14T07:46:10.586Z,3.08
2023-04-14T07:47:13.851Z,2.94
2023-04-14T07:48:17.042Z,3.50
2023-04-14T07:49:20.115Z,2.91
2023-04-14T07:50:23.301Z,2.89
2023-04-14T07:51:26.068Z,3.28
2023-04-14T07:52:28.742Z,2.92
2023-04-14T07:53:31.719Z,2.72
2023-04-14T07:54:34.943Z,2.83
2023-04-14T07:55:38.306Z,2.78
2023-04-14T07:56:41.386Z,3.09
2023-04-14T07:57:44.444Z,2.98
2023-04-14T07:58:47.217Z,2.88
2023-04-14T07:59:49.888Z,3.06
2023-04-14T08:00:52.759Z,2.81
2023-04-14T08:01:55.541Z,3.02
2023-04-14T08:02:58.492Z,3.65
2023-04-14T08:04:01.774Z,3.66
2023-04-14T08:05:04.708Z,3.57
2023-04-14T08:06:07.467Z,3.63
2023-04-14T08:07:10.208Z,2.96
2023-04-14T08:08:12.881Z,3.62
2023-04-14T08:09:15.557Z,3.88
2023-04-14T08:10:18.321Z,3.87
2023-04-14T08:11:20.998Z,3.02
2023-04-14T08:12:23.665Z,3.16
2023-04-14T08:13:26.435Z,2.94
2023-04-14T08:14:29.112Z,3.46
2023-04-14T08:15:31.994Z,3.18
2023-04-14T08:16:34.782Z,3.66
2023-04-14T08:17:38.847Z,3.82
2023-04-14T08:18:41.634Z,4.05
2023-04-14T08:19:44.293Z,3.84
2023-04-14T08:20:47.275Z,6.33
2023-04-14T08:21:50.045Z,4.34
2023-04-14T08:22:52.826Z,3.82
2023-04-14T08:23:55.589Z,4.17
2023-04-14T08:24:58.386Z,3.51
2023-04-14T08:26:04.210Z,3.94
2023-04-14T08:27:06.992Z,3.78
2023-04-14T08:28:09.759Z,3.23
2023-04-14T08:29:12.425Z,3.73
2023-04-14T08:30:15.190Z,3.62
2023-04-14T08:31:18.030Z,3.65
2023-04-14T08:32:21.041Z,3.86
2023-04-14T08:33:23.816Z,3.95
2023-04-14T08:34:28.535Z,3.95
2023-04-14T08:35:37.236Z,4.59
2023-04-14T08:36:35.320Z,4.11
2023-04-14T08:37:38.190Z,3.62
2023-04-14T08:38:40.872Z,4.08
2023-04-14T08:39:43.940Z,4.89
2023-04-14T08:40:46.710Z,3.80
2023-04-14T08:41:49.371Z,4.26
2023-04-14T08:42:52.285Z,3.96
2023-04-14T08:43:55.034Z,3.58
2023-04-14T08:44:58.002Z,3.62
2023-04-14T08:46:01.021Z,3.74
2023-04-14T08:47:03.741Z,3.42
2023-04-14T08:48:06.558Z,3.21
2023-04-14T08:49:09.296Z,3.58
2023-04-14T08:50:12.077Z,3.32
2023-04-14T08:51:14.941Z,3.82
2023-04-14T08:52:17.710Z,3.62
2023-04-14T08:53:20.502Z,3.71
2023-04-14T08:54:23.161Z,3.22
2023-04-14T08:55:26.132Z,3.27
2023-04-14T08:56:29.009Z,3.45
2023-04-14T08:57:31.675Z,3.90
2023-04-14T08:58:34.550Z,3.29
2023-04-14T08:59:37.634Z,3.27
2023-04-14T09:00:40.584Z,2.65
2023-04-14T09:01:43.617Z,3.02
2023-04-14T09:02:46.990Z,3.30
2023-04-14T09:03:50.298Z,3.41
2023-04-14T09:04:53.522Z,3.45
2023-04-14T09:05:56.519Z,3.28
2023-04-14T09:06:59.296Z,2.91
2023-04-14T09:08:02.076Z,2.94
2023-04-14T09:09:05.159Z,2.64
2023-04-14T09:10:07.929Z,2.72
2023-04-14T09:11:10.702Z,2.42
2023-04-14T09:12:13.563Z,2.58
2023-04-14T09:13:16.232Z,2.31
2023-04-14T09:14:19.213Z,2.23
2023-04-14T09:15:22.198Z,2.42
2023-04-14T09:16:25.325Z,2.32
2023-04-14T09:17:28.222Z,1.95
2023-04-14T09:18:30.913Z,2.32
2023-04-14T09:19:35.429Z,2.61
2023-04-14T09:20:40.648Z,2.44
2023-04-14T09:21:51.879Z,2.59
2023-04-14T09:22:47.240Z,2.44
2023-04-14T09:23:49.996Z,2.87
2023-04-14T09:24:52.867Z,2.48
2023-04-14T09:25:55.540Z,2.99
2023-04-14T09:26:58.520Z,3.02
2023-04-14T09:28:01.236Z,3.87
2023-04-14T09:29:04.162Z,3.12
2023-04-14T09:30:07.037Z,3.28
2023-04-14T09:31:10.117Z,3.35
2023-04-14T09:32:12.890Z,3.27
2023-04-14T09:33:15.842Z,3.25
2023-04-14T09:34:18.575Z,3.05
2023-04-14T09:35:21.318Z,3.50
2023-04-14T09:36:24.098Z,3.29
2023-04-14T09:37:27.159Z,3.58
2023-04-14T09:38:29.834Z,3.23
2023-04-14T09:39:32.605Z,3.37
2023-04-14T09:40:35.688Z,2.95
2023-04-14T09:41:38.552Z,3.50
2023-04-14T09:42:41.328Z,2.80
2023-04-14T09:43:44.200Z,2.76
2023-04-14T09:44:46.867Z,2.92
2023-04-14T09:45:49.663Z,3.03
2023-04-14T09:46:52.608Z,2.65
2023-04-14T09:47:56.324Z,3.04
2023-04-14T09:48:59.209Z,3.09
2023-04-14T09:50:02.171Z,2.84
2023-04-14T09:51:04.835Z,2.94
2023-04-14T09:52:07.627Z,2.47
2023-04-14T09:53:10.380Z,2.64
2023-04-14T09:54:13.157Z,2.77
2023-04-14T09:55:15.939Z,2.98
2023-04-14T09:56:18.696Z,2.49
2023-04-14T09:57:21.478Z,2.21
2023-04-14T09:58:26.868Z,2.47
2023-04-14T09:59:28.459Z,2.34
2023-04-14T10:00:31.116Z,2.43
2023-04-14T10:01:34.383Z,2.32
2023-04-14T10:02:37.549Z,2.74
2023-04-14T10:03:40.562Z,3.03
2023-04-14T10:04:43.513Z,2.57
2023-04-14T10:05:46.331Z,2.88
2023-04-14T10:06:49.182Z,2.82
2023-04-14T10:07:52.058Z,3.18
2023-04-14T10:08:54.854Z,2.80
2023-04-14T10:09:57.818Z,2.92
2023-04-14T10:11:00.683Z,3.15
2023-04-14T10:12:03.962Z,3.20
2023-04-14T10:13:06.944Z,2.98
2023-04-14T10:14:09.923Z,3.32
2023-04-14T10:15:12.803Z,3.44
2023-04-14T10:16:15.809Z,2.94
2023-04-14T10:17:18.772Z,3.02
2023-04-14T10:18:21.434Z,3.55
2023-04-14T10:19:23.734Z,3.29
2023-04-14T10:20:26.576Z,3.38
2023-04-14T10:21:29.330Z,3.18
2023-04-14T10:22:32.718Z,3.72
2023-04-14T10:23:35.516Z,3.39
2023-04-14T10:24:38.580Z,3.54
2023-04-14T10:25:41.448Z,3.23
2023-04-14T10:26:44.312Z,3.67
2023-04-14T10:27:47.295Z,3.06
2023-04-14T10:28:50.276Z,3.17
2023-04-14T10:29:53.357Z,3.20
2023-04-14T10:30:56.532Z,3.41
2023-04-14T10:31:59.690Z,3.58
2023-04-14T10:33:02.589Z,3.67
2023-04-14T10:34:05.351Z,3.29
2023-04-14T10:35:08.037Z,2.90
2023-04-14T10:36:11.004Z,2.82
2023-04-14T10:37:13.995Z,3.35
2023-04-14T10:38:17.383Z,2.98
2023-04-14T10:39:20.158Z,2.85
2023-04-14T10:40:23.386Z,3.17
2023-04-14T10:41:31.838Z,3.15
2023-04-14T10:42:34.708Z,3.60
2023-04-14T10:43:37.909Z,3.11
2023-04-14T10:44:40.972Z,3.48
2023-04-14T10:45:44.534Z,3.62
2023-04-14T10:46:47.274Z,3.42
2023-04-14T10:47:50.085Z,3.22
2023-04-14T10:48:53.094Z,3.10
2023-04-14T10:49:55.748Z,3.40
2023-04-14T10:50:58.631Z,3.15
2023-04-14T10:52:01.602Z,3.42
2023-04-14T10:53:04.577Z,3.48
2023-04-14T10:54:07.664Z,3.22
2023-04-14T10:55:10.326Z,3.37
2023-04-14T10:56:13.416Z,3.29
2023-04-14T10:57:16.600Z,3.59
2023-04-14T10:58:19.463Z,3.69
2023-04-14T10:59:22.337Z,3.36
2023-04-14T11:00:25.258Z,3.38
2023-04-14T11:01:28.363Z,3.38
2023-04-14T11:02:31.441Z,2.88
2023-04-14T11:03:34.545Z,2.94
2023-04-14T11:04:37.892Z,3.27
2023-04-14T11:05:40.616Z,2.88
2023-04-14T11:06:43.384Z,3.22
2023-04-14T11:07:46.287Z,3.73
2023-04-14T11:08:49.247Z,3.40
2023-04-14T11:09:52.221Z,2.95
2023-04-14T11:10:55.084Z,3.32
2023-04-14T11:11:58.173Z,3.01
2023-04-14T11:13:01.049Z,2.78
2023-04-14T11:14:04.129Z,3.05
2023-04-14T11:15:07.330Z,3.18
2023-04-14T11:16:10.215Z,2.78
2023-04-14T11:17:13.072Z,3.10
2023-04-14T11:18:16.072Z,3.23
2023-04-14T11:19:19.114Z,3.45
2023-04-14T11:20:22.285Z,3.45
2023-04-14T11:21:25.164Z,3.60
2023-04-14T11:22:28.153Z,2.75
2023-04-14T11:23:31.220Z,2.91
2023-04-14T11:24:34.313Z,3.14
2023-04-14T11:25:37.475Z,3.15
2023-04-14T11:26:40.254Z,3.03
2023-04-14T11:27:43.137Z,3.21
2023-04-14T11:28:46.231Z,3.72
2023-04-14T11:29:49.083Z,3.27
2023-04-14T11:30:52.186Z,3.47
2023-04-14T11:31:55.300Z,2.87
2023-04-14T11:32:58.164Z,3.10
2023-04-14T11:34:01.296Z,3.38
2023-04-14T11:35:04.067Z,3.76
2023-04-14T11:36:07.454Z,3.83
2023-04-14T11:37:10.433Z,3.39
2023-04-14T11:38:13.312Z,3.49
2023-04-14T11:39:16.486Z,3.22
2023-04-14T11:40:19.471Z,3.40
2023-04-14T11:41:22.354Z,3.35
2023-04-14T11:42:26.242Z,3.37
2023-04-14T11:43:28.804Z,3.52
2023-04-14T11:44:31.682Z,3.62
2023-04-14T11:45:34.253Z,3.68
2023-04-14T11:46:37.283Z,3.88
2023-04-14T11:47:40.122Z,4.43
2023-04-14T11:48:42.777Z,4.12
2023-04-14T11:49:45.441Z,3.65
2023-04-14T11:50:48.338Z,3.98
2023-04-14T11:51:51.194Z,3.85
2023-04-14T11:52:53.882Z,3.99
2023-04-14T11:53:56.738Z,4.15
2023-04-14T11:54:59.509Z,3.84
2023-04-14T11:56:02.391Z,3.93
2023-04-14T11:57:05.160Z,4.00
2023-04-14T11:58:07.831Z,4.15
2023-04-14T11:59:10.597Z,3.82
2023-04-14T12:00:13.174Z,3.89
2023-04-14T12:01:15.534Z,3.49
2023-04-14T12:02:18.901Z,3.42
2023-04-14T12:03:22.136Z,3.82
2023-04-14T12:04:25.158Z,3.41
2023-04-14T12:05:28.514Z,3.40
2023-04-14T12:06:31.558Z,3.35
2023-04-14T12:07:34.317Z,3.82
2023-04-14T12:08:37.184Z,3.42
2023-04-14T12:09:39.893Z,3.41
2023-04-14T12:10:43.246Z,3.80
2023-04-14T12:11:46.217Z,3.77
2023-04-14T12:12:48.993Z,3.95
2023-04-14T12:13:51.977Z,3.58
2023-04-14T12:14:54.637Z,3.36
2023-04-14T12:15:57.381Z,3.22
2023-04-14T12:17:00.115Z,3.67
2023-04-14T12:18:03.004Z,3.65
2023-04-14T12:19:05.743Z,3.59
2023-04-14T12:20:08.314Z,3.60
2023-04-14T12:21:12.248Z,3.11
2023-04-14T12:22:15.278Z,3.61
2023-04-14T12:23:18.078Z,3.59
2023-04-14T12:24:20.821Z,3.65
2023-04-14T12:25:23.488Z,3.48
2023-04-14T12:26:26.586Z,3.23
2023-04-14T12:27:29.557Z,3.07
2023-04-14T12:28:32.626Z,3.18
2023-04-14T12:29:35.497Z,2.94
2023-04-14T12:30:38.178Z,3.33
2023-04-14T12:31:40.899Z,3.14
2023-04-14T12:32:43.847Z,3.52
2023-04-14T12:33:46.595Z,3.01
2023-04-14T12:34:49.767Z,3.06
2023-04-14T12:35:52.435Z,2.85
2023-04-14T12:36:55.119Z,3.27
2023-04-14T12:37:57.879Z,2.74
2023-04-14T12:39:01.290Z,3.00
2023-04-14T12:40:04.033Z,3.10
2023-04-14T12:41:06.761Z,2.90
2023-04-14T12:42:09.484Z,2.99
2023-04-14T12:43:12.048Z,3.19
2023-04-14T12:44:15.141Z,3.17
2023-04-14T12:45:18.006Z,3.05
2023-04-14T12:46:22.451Z,2.82
2023-04-14T12:47:25.221Z,2.96
2023-04-14T12:48:28.163Z,2.80
2023-04-14T12:49:31.472Z,2.59
2023-04-14T12:50:34.220Z,3.03
2023-04-14T12:51:36.888Z,3.01
2023-04-14T12:52:39.676Z,3.33
2023-04-14T12:53:42.437Z,2.82
2023-04-14T12:54:45.305Z,2.92
2023-04-14T12:55:47.976Z,2.95
2023-04-14T12:56:50.546Z,3.09
2023-04-14T12:57:53.236Z,3.17
2023-04-14T12:58:55.876Z,3.19
2023-04-14T12:59:58.857Z,3.12
2023-04-14T13:01:01.649Z,3.59
2023-04-14T13:02:04.699Z,3.37
2023-04-14T13:03:07.565Z,3.79
2023-04-14T13:04:10.517Z,3.55
2023-04-14T13:05:13.645Z,3.62
2023-04-14T13:06:16.348Z,3.83
2023-04-14T13:07:18.985Z,3.41
2023-04-14T13:08:21.653Z,3.45
2023-04-14T13:09:24.335Z,3.66
2023-04-14T13:10:27.216Z,3.64
2023-04-14T13:11:30.078Z,3.58
2023-04-14T13:12:32.948Z,3.52
2023-04-14T13:13:35.934Z,3.45
2023-04-14T13:14:39.334Z,3.73
2023-04-14T13:16:12.393Z,3.83
2023-04-14T13:16:47.145Z,3.92
2023-04-14T13:17:49.900Z,3.69
2023-04-14T13:18:52.552Z,3.59
2023-04-14T13:19:55.234Z,3.39
2023-04-14T13:20:58.100Z,3.85
2023-04-14T13:22:00.771Z,3.48
2023-04-14T13:23:03.337Z,3.51
2023-04-14T13:24:05.999Z,3.08
2023-04-14T13:25:08.768Z,3.27
2023-04-14T13:26:11.876Z,3.10
2023-04-14T13:27:14.539Z,3.02
2023-04-14T13:28:17.090Z,3.50
2023-04-14T13:29:19.867Z,3.17
2023-04-14T13:30:22.637Z,3.08
2023-04-14T13:31:25.651Z,3.52
2023-04-14T13:32:31.467Z,3.38
2023-04-14T13:33:34.234Z,3.49
2023-04-14T13:34:37.002Z,3.04
2023-04-14T13:35:39.678Z,3.30
2023-04-14T13:36:42.661Z,3.36
2023-04-14T13:37:45.429Z,3.24
2023-04-14T13:38:48.083Z,2.97
2023-04-14T13:39:50.658Z,4.16
2023-04-14T13:40:53.445Z,3.21
2023-04-14T13:41:56.305Z,3.25
2023-04-14T13:42:58.876Z,3.12
2023-04-14T13:44:01.858Z,3.05
2023-04-14T13:45:04.421Z,2.69
2023-04-14T13:46:07.230Z,3.01
2023-04-14T13:47:10.177Z,2.98
2023-04-14T13:48:12.739Z,2.95
2023-04-14T13:49:15.304Z,2.87
2023-04-14T13:50:18.174Z,2.88
2023-04-14T13:51:20.850Z,2.72
2023-04-14T13:52:23.732Z,2.76
2023-04-14T13:53:26.598Z,2.90
2023-04-14T13:54:29.270Z,2.85
2023-04-14T13:55:31.946Z,2.82
2023-04-14T13:56:34.608Z,3.14
2023-04-14T13:57:37.279Z,3.23
2023-04-14T13:58:40.255Z,2.95
2023-04-14T13:59:42.925Z,3.43
2023-04-14T14:00:45.593Z,3.10
2023-04-14T14:01:48.455Z,2.83
2023-04-14T14:02:51.353Z,3.05